Time;durP1;ratioP1;P1;durP2;ratioP2;P2;SDS_P1;SDS_P2;PMS_P1;PMS_P2;Temp;Humidity;BMP_temperature;BMP_pressure;BME280_temperature;BME280_humidity;BME280_pressure;Samples;Min_cycle;Max_cycle;Signal;HPM_P1;HPM_P2
2023/08/07 00:02:12;;;;;;;4.77;2.50;;;12.60;99.90;;;;;;5052102;28;20223;-59
2023/08/07 00:04:40;;;;;;;4.87;2.77;;;12.60;99.90;;;;;;5049702;28;20252;-60
2023/08/07 00:07:10;;;;;;;9.20;3.60;;;12.60;99.90;;;;;;5047475;28;20247;-60
2023/08/07 00:09:38;;;;;;;6.27;3.00;;;12.50;99.90;;;;;;5048387;28;20197;-59
2023/08/07 00:12:07;;;;;;;5.00;2.93;;;12.50;99.90;;;;;;5049616;28;20220;-59
2023/08/07 00:14:35;;;;;;;5.80;3.43;;;12.50;99.90;;;;;;5047267;28;20241;-60
2023/08/07 00:17:04;;;;;;;6.43;3.00;;;12.50;99.90;;;;;;5041155;28;20220;-60
2023/08/07 00:19:33;;;;;;;3.63;2.80;;;12.50;99.90;;;;;;5048156;28;20212;-59
2023/08/07 00:22:01;;;;;;;2.90;2.70;;;12.50;99.90;;;;;;5045903;28;20212;-59
2023/08/07 00:24:30;;;;;;;5.20;3.00;;;12.60;99.90;;;;;;5046448;28;20187;-59
2023/08/07 00:26:59;;;;;;;4.20;2.63;;;12.60;99.90;;;;;;5050496;28;20695;-59
2023/08/07 00:29:27;;;;;;;7.07;2.97;;;12.60;99.80;;;;;;5051045;28;20695;-59
2023/08/07 00:31:55;;;;;;;8.80;3.17;;;12.60;97.50;;;;;;5046597;28;20755;-59
2023/08/07 00:34:24;;;;;;;3.80;2.53;;;12.60;98.40;;;;;;5024711;28;20717;-60
2023/08/07 00:36:52;;;;;;;4.77;2.50;;;12.60;98.30;;;;;;5042864;28;20185;-60
2023/08/07 00:39:21;;;;;;;7.50;2.53;;;12.50;97.50;;;;;;5051196;28;20204;-59
2023/08/07 00:41:50;;;;;;;5.03;2.50;;;12.50;97.10;;;;;;5050087;28;20224;-60
2023/08/07 00:44:19;;;;;;;3.40;2.53;;;12.50;95.70;;;;;;5031304;28;20222;-60
2023/08/07 00:46:48;;;;;;;3.33;2.63;;;12.50;94.50;;;;;;5048255;28;20597;-59
2023/08/07 00:49:17;;;;;;;8.17;2.77;;;12.50;93.90;;;;;;5027510;28;20586;-60
2023/08/07 00:51:46;;;;;;;8.40;2.73;;;12.50;94.60;;;;;;5050235;28;20229;-59
2023/08/07 00:54:19;;;;;;;8.20;2.80;;;12.50;96.90;;;;;;5039274;28;20228;-60
2023/08/07 00:56:47;;;;;;;6.07;2.63;;;12.40;99.20;;;;;;5040218;28;20263;-59
2023/08/07 00:59:17;;;;;;;3.07;2.60;;;12.40;99.90;;;;;;5039489;28;20602;-59
2023/08/07 01:01:46;;;;;;;7.30;2.73;;;12.30;99.90;;;;;;5034909;28;20698;-59
2023/08/07 01:04:14;;;;;;;11.70;3.70;;;12.30;99.90;;;;;;5035464;28;20225;-60
2023/08/07 01:06:42;;;;;;;6.23;2.87;;;12.20;99.90;;;;;;5044719;28;20189;-59
2023/08/07 01:09:11;;;;;;;3.77;3.10;;;12.20;99.90;;;;;;5044392;28;20234;-59
2023/08/07 01:11:48;;;;;;;6.37;2.67;;;12.20;99.90;;;;;;5030235;28;20221;-59
2023/08/07 01:14:27;;;;;;;3.97;2.70;;;12.10;99.90;;;;;;5046993;28;20660;-59
2023/08/07 01:17:01;;;;;;;5.03;2.73;;;12.10;99.90;;;;;;5036707;28;20217;-60
2023/08/07 01:19:31;;;;;;;4.13;2.70;;;12.10;99.90;;;;;;5039950;28;20568;-59
2023/08/07 01:22:08;;;;;;;3.50;2.80;;;12.10;99.90;;;;;;5023768;28;20200;-59
2023/08/07 01:24:37;;;;;;;7.43;2.90;;;12.10;99.90;;;;;;5039347;28;20191;-59
2023/08/07 01:27:16;;;;;;;9.20;2.90;;;12.10;99.80;;;;;;5035170;28;20605;-60
2023/08/07 01:29:52;;;;;;;4.37;3.17;;;12.10;98.60;;;;;;5047972;28;20223;-59
2023/08/07 01:32:25;;;;;;;5.10;2.70;;;12.10;98.90;;;;;;5044856;28;20306;-59
2023/08/07 01:34:57;;;;;;;3.50;2.63;;;12.10;98.40;;;;;;5048797;28;20256;-59
2023/08/07 01:37:29;;;;;;;3.10;2.50;;;12.10;97.00;;;;;;5038539;28;20242;-59
2023/08/07 01:39:59;;;;;;;3.70;2.43;;;12.10;97.50;;;;;;5044592;28;20196;-58
2023/08/07 01:42:28;;;;;;;2.43;2.33;;;12.10;97.30;;;;;;5033387;28;20509;-59
2023/08/07 01:44:57;;;;;;;5.13;2.60;;;12.10;95.80;;;;;;5043281;28;20213;-59
2023/08/07 01:47:25;;;;;;;6.40;2.43;;;12.00;95.40;;;;;;5043728;28;20217;-60
2023/08/07 01:49:54;;;;;;;2.73;2.50;;;12.00;94.80;;;;;;5041580;28;20229;-59
2023/08/07 01:52:22;;;;;;;5.77;2.60;;;12.00;95.10;;;;;;5036481;28;20237;-60
2023/08/07 01:54:52;;;;;;;5.93;2.37;;;12.00;95.10;;;;;;5028707;28;20212;-60
2023/08/07 01:57:20;;;;;;;4.33;2.57;;;12.00;96.10;;;;;;5026218;28;20564;-59
2023/08/07 01:59:48;;;;;;;8.50;2.77;;;12.00;96.10;;;;;;5028208;28;20337;-60
2023/08/07 02:02:17;;;;;;;4.93;2.70;;;12.00;98.30;;;;;;5024758;28;20229;-60
2023/08/07 02:04:45;;;;;;;4.20;2.43;;;11.90;99.80;;;;;;5027418;28;20659;-60
2023/08/07 02:07:13;;;;;;;2.67;2.47;;;11.90;99.90;;;;;;5027942;28;20232;-60
2023/08/07 02:09:41;;;;;;;3.37;2.40;;;11.90;99.90;;;;;;5030780;28;20217;-60
2023/08/07 02:12:11;;;;;;;7.53;2.60;;;11.90;99.90;;;;;;5027894;28;20232;-60
2023/08/07 02:14:39;;;;;;;7.03;2.60;;;11.80;99.90;;;;;;5033201;28;20221;-60
2023/08/07 02:17:08;;;;;;;6.90;2.90;;;11.80;99.90;;;;;;5016323;28;20229;-60
2023/08/07 02:19:36;;;;;;;4.47;2.70;;;11.80;99.90;;;;;;5011752;28;20307;-60
2023/08/07 02:22:05;;;;;;;5.00;2.43;;;11.80;99.90;;;;;;5030153;28;20194;-60
2023/08/07 02:24:33;;;;;;;6.53;2.77;;;11.80;99.90;;;;;;5034977;28;20185;-59
2023/08/07 02:27:01;;;;;;;6.20;2.77;;;11.70;99.90;;;;;;5012085;28;20233;-60
2023/08/07 02:29:33;;;;;;;5.93;3.00;;;11.70;99.90;;;;;;5024610;28;20229;-59
2023/08/07 02:32:03;;;;;;;6.53;2.60;;;11.70;99.90;;;;;;5009150;28;20230;-59
2023/08/07 02:34:32;;;;;;;4.47;2.63;;;11.70;99.90;;;;;;5029315;28;20577;-59
2023/08/07 02:37:00;;;;;;;4.03;2.50;;;11.70;99.90;;;;;;5038441;28;20682;-59
2023/08/07 02:39:29;;;;;;;3.63;2.97;;;11.70;99.90;;;;;;5032615;28;20189;-60
2023/08/07 02:41:57;;;;;;;4.87;2.83;;;11.70;99.90;;;;;;5035157;28;20320;-59
2023/08/07 02:44:25;;;;;;;4.03;2.67;;;11.70;99.90;;;;;;5029931;28;20224;-60
2023/08/07 02:46:55;;;;;;;3.77;2.67;;;11.70;99.90;;;;;;5027848;28;20275;-60
2023/08/07 02:49:25;;;;;;;4.60;2.67;;;11.80;99.90;;;;;;5033966;28;20741;-60
2023/08/07 02:51:54;;;;;;;5.67;2.60;;;11.80;99.90;;;;;;5025366;28;20745;-60
2023/08/07 02:54:22;;;;;;;3.83;2.40;;;11.90;99.90;;;;;;5054239;28;20658;-60
2023/08/07 02:56:50;;;;;;;4.57;2.30;;;11.90;99.90;;;;;;5052828;28;20213;-60
2023/08/07 02:59:19;;;;;;;2.57;2.10;;;11.90;99.90;;;;;;5047265;28;20227;-60
2023/08/07 03:01:47;;;;;;;4.50;2.63;;;11.90;99.90;;;;;;5051070;28;20328;-59
2023/08/07 03:04:17;;;;;;;5.23;2.80;;;11.90;99.90;;;;;;5036869;28;20221;-61
2023/08/07 03:06:45;;;;;;;6.23;2.87;;;11.90;99.90;;;;;;5041093;28;20524;-59
2023/08/07 03:09:13;;;;;;;4.07;2.70;;;12.00;99.90;;;;;;5041758;28;20568;-60
2023/08/07 03:11:41;;;;;;;7.47;2.70;;;11.90;99.90;;;;;;5044089;28;20595;-60
2023/08/07 03:14:10;;;;;;;3.57;2.83;;;11.90;99.90;;;;;;5045148;28;20213;-60
2023/08/07 03:16:38;;;;;;;5.50;3.30;;;11.90;99.90;;;;;;5047428;28;20248;-60
2023/08/07 03:19:06;;;;;;;4.03;2.50;;;11.90;99.90;;;;;;5043738;28;20195;-59
2023/08/07 03:21:36;;;;;;;4.70;3.10;;;11.80;99.90;;;;;;5033334;28;20250;-60
2023/08/07 03:24:04;;;;;;;6.10;2.70;;;11.80;99.90;;;;;;5040069;28;20645;-59
2023/08/07 03:26:33;;;;;;;8.77;3.03;;;11.80;99.90;;;;;;5041882;28;20229;-59
2023/08/07 03:29:01;;;;;;;7.33;3.13;;;11.70;99.90;;;;;;5037752;28;20213;-60
2023/08/07 03:31:31;;;;;;;10.63;3.43;;;11.70;99.90;;;;;;5045121;28;20817;-60
2023/08/07 03:33:59;;;;;;;4.77;3.03;;;11.60;99.90;;;;;;5042453;28;20193;-59
2023/08/07 03:36:28;;;;;;;6.70;3.10;;;11.60;99.90;;;;;;5034080;28;20235;-60
2023/08/07 03:38:57;;;;;;;5.37;3.43;;;11.60;99.90;;;;;;5049543;28;20219;-60
2023/08/07 03:41:26;;;;;;;5.23;2.97;;;11.60;99.90;;;;;;5042468;28;20242;-59
2023/08/07 03:43:55;;;;;;;5.67;2.90;;;11.60;99.90;;;;;;5041669;28;20842;-60
2023/08/07 03:46:23;;;;;;;5.87;3.10;;;11.60;99.90;;;;;;5032869;28;20691;-60
2023/08/07 03:48:51;;;;;;;6.10;3.33;;;11.50;99.90;;;;;;5052927;28;20193;-57
2023/08/07 03:51:20;;;;;;;2.97;2.77;;;11.50;99.90;;;;;;5046811;28;20197;-60
2023/08/07 03:53:48;;;;;;;4.03;3.53;;;11.50;99.90;;;;;;5050324;28;20221;-60
2023/08/07 03:56:18;;;;;;;8.33;3.10;;;11.50;99.90;;;;;;5052481;28;20590;-60
2023/08/07 03:58:46;;;;;;;6.97;3.60;;;11.50;99.90;;;;;;5047053;28;20220;-60
2023/08/07 04:01:15;;;;;;;11.07;3.40;;;11.50;99.90;;;;;;5050372;28;20224;-59
2023/08/07 04:03:43;;;;;;;5.43;3.23;;;11.50;99.90;;;;;;5042452;28;20189;-60
2023/08/07 04:06:15;;;;;;;3.80;3.23;;;11.50;99.90;;;;;;5040621;28;20278;-60
2023/08/07 04:08:45;;;;;;;4.63;3.20;;;11.50;99.90;;;;;;5041987;28;20704;-60
2023/08/07 04:11:14;;;;;;;5.70;3.40;;;11.50;99.90;;;;;;5045890;28;20632;-60
2023/08/07 04:13:44;;;;;;;5.30;3.50;;;11.50;99.90;;;;;;5037998;28;20212;-60
2023/08/07 04:16:12;;;;;;;3.63;3.10;;;11.50;99.90;;;;;;5042395;28;20251;-60
2023/08/07 04:18:40;;;;;;;9.57;3.23;;;11.50;99.90;;;;;;5051929;28;20587;-60
2023/08/07 04:21:09;;;;;;;4.70;3.17;;;11.50;99.90;;;;;;5031502;28;20312;-60
2023/08/07 04:23:37;;;;;;;7.53;3.60;;;11.40;99.90;;;;;;5049076;28;20220;-60
2023/08/07 04:26:08;;;;;;;7.90;3.77;;;11.50;99.90;;;;;;5052184;28;20240;-59
2023/08/07 04:28:36;;;;;;;5.33;3.30;;;11.40;99.90;;;;;;5050405;28;20224;-60
2023/08/07 04:31:06;;;;;;;8.00;3.30;;;11.50;99.90;;;;;;5022315;28;20224;-60
2023/08/07 04:33:36;;;;;;;9.50;3.30;;;11.50;99.90;;;;;;5031660;28;20203;-60
2023/08/07 04:36:05;;;;;;;6.23;2.90;;;11.50;99.90;;;;;;5041730;28;20235;-60
2023/08/07 04:38:33;;;;;;;5.03;3.17;;;11.50;99.90;;;;;;5050655;28;20216;-60
2023/08/07 04:41:03;;;;;;;4.57;3.40;;;11.50;99.90;;;;;;5043080;28;20602;-60
2023/08/07 04:43:32;;;;;;;6.77;3.30;;;11.60;99.90;;;;;;5044342;28;20710;-60
2023/08/07 04:46:01;;;;;;;7.00;3.10;;;11.60;99.90;;;;;;5043081;28;20193;-59
2023/08/07 04:48:31;;;;;;;5.80;3.53;;;11.60;99.90;;;;;;5047981;28;20200;-60
2023/08/07 04:50:59;;;;;;;4.53;3.23;;;11.60;99.90;;;;;;5050438;28;20223;-60
2023/08/07 04:53:27;;;;;;;5.73;3.40;;;11.60;99.90;;;;;;5047110;28;20292;-60
2023/08/07 04:55:56;;;;;;;4.80;3.07;;;11.60;99.90;;;;;;5051648;28;20705;-60
2023/08/07 04:58:24;;;;;;;9.30;3.30;;;11.60;99.90;;;;;;5046865;28;20225;-60
2023/08/07 05:00:56;;;;;;;9.60;3.40;;;11.70;99.90;;;;;;5040552;28;20674;-59
2023/08/07 05:03:26;;;;;;;7.03;3.20;;;11.70;99.90;;;;;;5048001;28;20193;-60
2023/08/07 05:06:01;;;;;;;7.70;2.90;;;11.70;99.90;;;;;;5053038;28;20638;-59
2023/08/07 05:08:29;;;;;;;8.80;3.33;;;11.80;99.90;;;;;;5040370;28;20227;-60
2023/08/07 05:10:57;;;;;;;6.33;3.13;;;11.90;99.90;;;;;;5045584;28;20228;-60
2023/08/07 05:13:26;;;;;;;8.20;3.63;;;11.90;99.90;;;;;;5050215;28;20579;-60
2023/08/07 05:15:54;;;;;;;5.43;3.10;;;12.00;99.90;;;;;;5049422;28;20816;-59
2023/08/07 05:18:22;;;;;;;5.23;3.33;;;12.10;99.90;;;;;;5041596;28;20201;-60
2023/08/07 05:20:50;;;;;;;9.13;3.17;;;12.10;99.90;;;;;;5046076;28;20216;-60
2023/08/07 05:23:20;;;;;;;4.30;3.40;;;12.20;99.90;;;;;;5040741;28;20229;-60
2023/08/07 05:25:48;;;;;;;13.00;3.20;;;12.40;99.90;;;;;;5036537;28;20600;-60
2023/08/07 05:28:17;;;;;;;12.47;3.53;;;12.50;99.90;;;;;;5042260;28;20228;-60
2023/08/07 05:30:45;;;;;;;5.37;3.23;;;12.60;99.90;;;;;;5040541;28;20595;-60
2023/08/07 05:33:15;;;;;;;3.20;3.00;;;12.70;99.90;;;;;;5046855;28;20279;-60
2023/08/07 05:35:43;;;;;;;4.87;3.07;;;12.90;99.90;;;;;;5045856;28;20578;-60
2023/08/07 05:38:12;;;;;;;6.60;3.20;;;13.10;99.90;;;;;;5044422;28;20954;-60
2023/08/07 05:40:41;;;;;;;6.20;2.87;;;13.20;99.90;;;;;;5039328;28;20220;-60
2023/08/07 05:43:10;;;;;;;5.00;2.90;;;13.40;99.90;;;;;;5048060;28;20198;-60
2023/08/07 05:45:39;;;;;;;7.00;3.30;;;13.50;98.60;;;;;;5050017;28;20525;-60
2023/08/07 05:48:09;;;;;;;9.90;3.40;;;13.70;96.00;;;;;;5045854;28;20226;-59
2023/08/07 05:50:37;;;;;;;9.40;3.33;;;13.80;92.30;;;;;;5045353;28;20212;-60
2023/08/07 05:53:06;;;;;;;7.80;2.90;;;13.90;91.60;;;;;;5046506;28;20228;-60
2023/08/07 05:55:34;;;;;;;4.83;2.97;;;14.00;87.30;;;;;;5035624;28;20222;-60
2023/08/07 05:58:04;;;;;;;7.63;3.47;;;14.10;83.30;;;;;;5041493;28;20235;-59
2023/08/07 06:00:32;;;;;;;7.80;3.17;;;14.20;74.90;;;;;;5045194;28;20549;-60
2023/08/07 06:03:00;;;;;;;4.17;3.13;;;14.40;69.20;;;;;;5037747;28;20287;-60
2023/08/07 06:05:29;;;;;;;6.23;2.90;;;14.50;68.90;;;;;;5049981;28;20685;-60
2023/08/07 06:07:58;;;;;;;8.17;3.50;;;14.60;62.10;;;;;;5042254;28;20226;-60
2023/08/07 06:10:26;;;;;;;7.70;3.30;;;14.70;68.00;;;;;;5044044;28;20319;-60
2023/08/07 06:12:55;;;;;;;5.13;2.70;;;14.80;68.30;;;;;;5047470;28;20194;-59
2023/08/07 06:15:24;;;;;;;4.90;2.90;;;14.90;53.40;;;;;;5050941;28;20200;-60
2023/08/07 06:17:53;;;;;;;6.23;3.00;;;15.00;51.60;;;;;;5049343;28;20236;-60
2023/08/07 06:20:21;;;;;;;4.03;3.00;;;15.10;44.90;;;;;;5031198;28;20266;-60
2023/08/07 06:22:49;;;;;;;6.67;2.93;;;15.20;42.00;;;;;;5048821;28;20224;-60
2023/08/07 06:25:19;;;;;;;5.13;2.93;;;15.30;33.60;;;;;;5049814;28;20229;-60
2023/08/07 06:27:47;;;;;;;5.47;2.83;;;15.50;30.00;;;;;;5049568;28;20270;-59
2023/08/07 06:30:16;;;;;;;6.90;3.23;;;15.60;21.10;;;;;;5048532;28;20219;-60
2023/08/07 06:32:45;;;;;;;3.73;3.17;;;15.60;10.90;;;;;;5057735;28;20315;-60
2023/08/07 06:35:13;;;;;;;9.87;3.50;;;15.80;1.00;;;;;;5049764;28;20220;-60
2023/08/07 06:37:41;;;;;;;9.10;3.27;;;15.80;1.00;;;;;;5046978;28;20226;-60
2023/08/07 06:40:10;;;;;;;9.20;3.57;;;15.80;1.00;;;;;;5044569;28;20203;-59
2023/08/07 06:42:39;;;;;;;6.30;3.57;;;15.90;1.00;;;;;;5044327;28;20190;-59
2023/08/07 06:45:08;;;;;;;5.27;3.80;;;16.00;1.00;;;;;;5047340;28;20615;-59
2023/08/07 06:47:37;;;;;;;4.80;3.10;;;16.10;1.00;;;;;;5050186;28;20220;-59
2023/08/07 06:50:07;;;;;;;6.23;3.53;;;16.30;1.00;;;;;;5055307;28;20215;-59
2023/08/07 06:52:36;;;;;;;6.60;3.67;;;16.50;1.00;;;;;;5050566;28;20706;-59
2023/08/07 06:55:05;;;;;;;11.77;3.60;;;16.70;1.00;;;;;;5038523;28;20185;-59
2023/08/07 06:57:34;;;;;;;7.63;2.90;;;16.80;1.00;;;;;;5043411;28;20205;-59
2023/08/07 07:00:02;;;;;;;7.47;3.60;;;16.90;1.00;;;;;;5052067;28;20274;-59
2023/08/07 07:02:30;;;;;;;5.37;2.97;;;17.00;1.00;;;;;;5049229;28;20239;-59
2023/08/07 07:04:58;;;;;;;6.60;3.30;;;17.10;1.00;;;;;;5053868;28;20216;-59
2023/08/07 07:07:28;;;;;;;5.23;3.17;;;17.30;1.00;;;;;;5043160;28;20314;-59
2023/08/07 07:09:57;;;;;;;2.67;2.47;;;17.40;1.00;;;;;;5041106;28;20695;-56
2023/08/07 07:12:26;;;;;;;6.30;2.63;;;17.50;1.00;;;;;;5023494;28;20196;-59
2023/08/07 07:14:54;;;;;;;5.70;2.60;;;17.60;1.00;;;;;;5049489;28;21105;-59
2023/08/07 07:17:22;;;;;;;4.93;2.47;;;17.70;1.00;;;;;;5049713;28;20216;-59
2023/08/07 07:19:51;;;;;;;3.13;2.43;;;17.80;1.00;;;;;;5050231;28;20303;-59
2023/08/07 07:22:19;;;;;;;4.37;2.40;;;18.00;1.00;;;;;;5049551;28;20221;-59
2023/08/07 07:24:49;;;;;;;3.33;2.60;;;18.10;1.00;;;;;;5030787;28;20239;-59
2023/08/07 07:27:17;;;;;;;6.77;2.63;;;18.20;1.00;;;;;;5050066;28;20216;-59
2023/08/07 07:29:47;;;;;;;8.63;3.03;;;18.40;1.00;;;;;;5044200;28;20228;-59
2023/08/07 07:32:15;;;;;;;2.70;2.50;;;18.40;1.00;;;;;;5052188;28;20225;-59
2023/08/07 07:34:44;;;;;;;5.20;2.37;;;18.40;1.00;;;;;;5053174;28;20224;-59
2023/08/07 07:37:14;;;;;;;3.53;2.27;;;18.40;1.00;;;;;;5044994;28;20316;-59
2023/08/07 07:39:42;;;;;;;5.57;2.40;;;18.60;1.00;;;;;;5046667;28;20266;-60
2023/08/07 07:42:12;;;;;;;4.87;2.40;;;18.90;1.00;;;;;;5035386;28;20222;-59
2023/08/07 07:44:40;;;;;;;3.07;2.20;;;19.10;1.00;;;;;;5048371;28;20245;-59
2023/08/07 07:47:09;;;;;;;6.67;2.10;;;19.20;99.90;;;;;;5030858;28;20706;-60
2023/08/07 07:49:46;;;;;;;2.30;2.10;;;19.30;99.90;;;;;;5042164;28;20269;-60
2023/08/07 07:52:14;;;;;;;5.70;2.50;;;19.50;99.90;;;;;;5045863;28;20795;-60
2023/08/07 07:54:43;;;;;;;3.93;2.20;;;19.60;99.90;;;;;;5052859;28;20200;-60
2023/08/07 07:57:12;;;;;;;4.37;2.47;;;19.60;99.90;;;;;;5049437;28;20227;-60
2023/08/07 07:59:41;;;;;;;2.50;2.23;;;19.70;99.90;;;;;;5044409;28;20221;-60
2023/08/07 08:02:09;;;;;;;2.23;2.00;;;19.80;99.90;;;;;;5038995;28;20556;-60
2023/08/07 08:04:37;;;;;;;2.10;2.00;;;20.00;99.90;;;;;;5039397;28;20246;-60
2023/08/07 08:07:06;;;;;;;3.90;2.37;;;20.20;99.90;;;;;;5053638;28;20200;-60
2023/08/07 08:09:35;;;;;;;4.27;1.80;;;20.40;99.90;;;;;;5048047;28;20284;-60
2023/08/07 08:12:04;;;;;;;2.40;2.20;;;20.50;99.90;;;;;;5042601;28;20228;-59
2023/08/07 08:14:34;;;;;;;4.83;2.13;;;20.50;99.90;;;;;;5044241;28;20332;-59
2023/08/07 08:17:21;;;;;;;4.30;2.50;;;20.50;99.90;;;;;;5046807;28;20260;-59
2023/08/07 08:19:50;;;;;;;4.60;2.27;;;20.70;99.90;;;;;;5048356;28;20658;-60
2023/08/07 08:22:19;;;;;;;15.67;2.47;;;20.80;99.90;;;;;;5034648;28;20323;-60
2023/08/07 08:24:48;;;;;;;4.10;2.20;;;20.80;99.90;;;;;;5051102;28;20208;-60
2023/08/07 08:27:18;;;;;;;3.40;2.00;;;20.80;99.90;;;;;;5051419;28;20714;-60
2023/08/07 08:29:48;;;;;;;3.77;2.03;;;20.90;99.90;;;;;;5048030;28;20217;-60
2023/08/07 08:32:16;;;;;;;2.60;1.70;;;21.30;99.90;;;;;;5046966;28;20949;-60
2023/08/07 08:34:45;;;;;;;2.90;2.20;;;21.30;99.90;;;;;;5049479;28;20217;-60
2023/08/07 08:37:14;;;;;;;3.07;2.40;;;21.60;99.90;;;;;;5050139;28;20228;-60
2023/08/07 08:39:42;;;;;;;2.50;1.80;;;21.70;99.90;;;;;;5052093;28;20627;-60
2023/08/07 08:42:13;;;;;;;2.20;1.97;;;21.80;99.90;;;;;;5046328;28;20235;-60
2023/08/07 08:44:44;;;;;;;1.97;1.83;;;21.70;99.90;;;;;;5043975;28;20225;-60
2023/08/07 08:47:15;;;;;;;2.40;2.20;;;21.40;99.90;;;;;;5045245;28;20798;-60
2023/08/07 08:49:48;;;;;;;2.17;1.97;;;21.20;99.90;;;;;;5047894;28;20232;-60
2023/08/07 08:52:17;;;;;;;4.00;2.10;;;21.40;99.90;;;;;;5049644;28;20236;-60
2023/08/07 08:54:45;;;;;;;3.73;2.30;;;21.80;99.90;;;;;;5041730;28;20220;-60
2023/08/07 08:57:14;;;;;;;1.83;1.75;;;22.20;99.90;;;;;;5046102;28;20569;-61
2023/08/07 08:59:43;;;;;;;1.88;1.70;;;22.60;99.90;;;;;;5049254;28;20222;-61
2023/08/07 09:02:11;;;;;;;2.08;1.80;;;22.60;99.90;;;;;;5037144;28;20265;-60
2023/08/07 09:04:42;;;;;;;1.90;1.80;;;22.90;99.90;;;;;;5040636;28;20227;-60
2023/08/07 09:07:11;;;;;;;2.08;1.92;;;22.80;99.90;;;;;;5042173;28;20204;-60
2023/08/07 09:09:41;;;;;;;1.70;1.70;;;22.30;99.90;;;;;;5050521;28;20729;-60
2023/08/07 09:12:17;;;;;;;1.77;1.67;;;21.50;99.90;;;;;;5049424;28;20224;-60
2023/08/07 09:14:49;;;;;;;1.70;1.70;;;20.80;99.90;;;;;;5040895;28;20223;-59
2023/08/07 09:17:18;;;;;;;2.10;1.90;;;20.30;99.90;;;;;;5042308;28;20223;-59
2023/08/07 09:19:48;;;;;;;1.87;1.70;;;20.00;99.90;;;;;;5028522;28;20272;-59
2023/08/07 09:22:17;;;;;;;1.83;1.57;;;20.60;99.90;;;;;;5048763;28;20354;-60
2023/08/07 09:24:45;;;;;;;1.83;1.53;;;21.40;99.90;;;;;;5046660;28;20281;-59
2023/08/07 09:27:14;;;;;;;2.73;1.60;;;21.60;99.90;;;;;;5034702;28;20217;-59
2023/08/07 09:29:47;;;;;;;1.80;1.70;;;21.60;99.90;;;;;;5042962;28;20229;-59
2023/08/07 09:32:15;;;;;;;2.10;1.90;;;22.40;99.90;;;;;;5033579;28;20638;-59
2023/08/07 09:34:44;;;;;;;1.67;1.58;;;23.20;99.90;;;;;;5044172;28;20214;-60
2023/08/07 09:37:13;;;;;;;1.85;1.73;;;24.10;99.90;;;;;;5047435;28;20691;-60
2023/08/07 09:39:42;;;;;;;2.45;1.88;;;24.70;99.90;;;;;;5034343;28;20251;-59
2023/08/07 09:42:15;;;;;;;1.70;1.70;;;24.60;99.90;;;;;;5033433;28;20341;-59
2023/08/07 09:44:46;;;;;;;1.83;1.63;;;23.90;99.90;;;;;;5047155;28;20254;-59
2023/08/07 09:47:16;;;;;;;1.77;1.60;;;23.90;99.90;;;;;;5042367;28;20229;-59
2023/08/07 09:49:45;;;;;;;1.50;1.33;;;24.20;99.90;;;;;;5043911;28;20214;-59
2023/08/07 09:52:16;;;;;;;1.73;1.55;;;25.00;99.90;;;;;;5040314;28;20308;-59
2023/08/07 09:54:44;;;;;;;1.63;1.52;;;25.70;99.90;;;;;;5021682;28;20198;-60
2023/08/07 09:57:14;;;;;;;3.22;1.60;;;25.60;99.90;;;;;;5023199;28;20231;-60
2023/08/07 09:59:43;;;;;;;1.40;1.40;;;25.00;99.90;;;;;;5021368;28;20322;-60
2023/08/07 10:02:12;;;;;;;1.50;1.40;;;24.30;99.90;;;;;;5030012;28;20303;-59
2023/08/07 10:04:41;;;;;;;1.95;1.70;;;24.10;99.90;;;;;;5023046;28;20218;-60
2023/08/07 10:07:12;;;;;;;1.60;1.50;;;24.60;99.90;;;;;;5022759;28;20197;-60
2023/08/07 10:09:43;;;;;;;2.42;1.60;;;25.00;99.90;;;;;;5011114;28;20216;-60
2023/08/07 10:12:12;;;;;;;2.28;1.73;;;24.80;99.90;;;;;;5023443;28;20223;-60
2023/08/07 10:14:42;;;;;;;2.00;1.90;;;23.70;99.90;;;;;;5027822;28;20726;-60
2023/08/07 10:17:11;;;;;;;2.00;1.80;;;22.80;99.90;;;;;;5017265;28;20322;-60
2023/08/07 10:19:39;;;;;;;1.60;1.50;;;22.40;99.90;;;;;;5011982;28;20257;-60
2023/08/07 10:22:09;;;;;;;1.90;1.80;;;21.90;99.90;;;;;;5028626;28;20245;-60
2023/08/07 10:24:43;;;;;;;3.40;1.87;;;21.70;99.90;;;;;;5027396;28;20233;-60
2023/08/07 10:27:13;;;;;;;1.70;1.60;;;21.80;99.90;;;;;;5028786;28;20224;-61
2023/08/07 10:29:42;;;;;;;2.60;1.77;;;22.90;99.90;;;;;;5020847;28;20691;-61
2023/08/07 10:32:11;;;;;;;1.80;1.70;;;24.20;99.90;;;;;;5023814;28;20597;-61
2023/08/07 10:34:40;;;;;;;2.05;1.50;;;25.20;99.90;;;;;;5025438;28;20223;-61
2023/08/07 10:37:08;;;;;;;1.60;1.50;;;26.50;99.90;;;;;;5017473;28;20190;-61
2023/08/07 10:39:38;;;;;;;1.70;1.50;;;26.90;99.90;;;;;;5023615;28;20214;-61
2023/08/07 10:42:08;;;;;;;1.40;1.40;;;26.30;99.90;;;;;;5022669;28;20727;-61
2023/08/07 10:44:50;;;;;;;3.42;1.77;;;25.30;99.90;;;;;;5013403;28;20218;-60
2023/08/07 10:47:34;;;;;;;2.50;1.70;;;24.00;99.90;;;;;;5021414;28;20311;-60
2023/08/07 10:50:04;;;;;;;1.88;1.67;;;23.50;99.90;;;;;;5025956;28;20224;-60
2023/08/07 10:52:32;;;;;;;3.25;1.42;;;24.00;99.90;;;;;;5037917;28;20678;-61
2023/08/07 10:55:01;;;;;;;2.15;1.60;;;25.00;99.90;;;;;;5043484;28;20197;-61
2023/08/07 10:57:33;;;;;;;2.00;1.52;;;25.40;99.90;;;;;;5048824;28;20217;-61
2023/08/07 11:00:07;;;;;;;2.97;1.55;;;25.80;99.90;;;;;;5050212;28;20227;-61
2023/08/07 11:02:43;;;;;;;1.20;1.20;;;26.50;99.90;;;;;;5051497;28;20216;-61
2023/08/07 11:05:14;;;;;;;3.55;1.75;;;26.70;99.90;;;;;;5026443;28;20234;-61
2023/08/07 11:07:47;;;;;;;1.88;1.50;;;26.50;99.90;;;;;;5044461;28;20314;-60
2023/08/07 11:10:16;;;;;;;1.50;1.42;;;26.20;99.90;;;;;;5044672;28;20264;-60
2023/08/07 11:12:47;;;;;;;1.50;1.40;;;26.00;99.90;;;;;;5046122;28;20217;-60
2023/08/07 11:15:16;;;;;;;1.75;1.65;;;26.00;99.90;;;;;;5049114;28;20289;-60
2023/08/07 11:17:46;;;;;;;2.88;1.60;;;25.50;99.90;;;;;;5046057;28;20296;-60
2023/08/07 11:20:16;;;;;;;1.90;1.80;;;25.00;99.90;;;;;;5049436;28;20748;-60
2023/08/07 11:22:45;;;;;;;1.40;1.40;;;24.40;99.90;;;;;;5042841;28;20348;-60
2023/08/07 11:25:15;;;;;;;1.40;1.38;;;24.10;99.90;;;;;;5029052;28;20226;-59
2023/08/07 11:27:46;;;;;;;1.40;1.40;;;24.10;99.90;;;;;;5047120;28;20701;-60
2023/08/07 11:30:22;;;;;;;1.60;1.50;;;23.80;99.90;;;;;;5048318;28;20225;-60
2023/08/07 11:32:51;;;;;;;1.43;1.40;;;23.20;99.90;;;;;;5035333;28;20666;-59
2023/08/07 11:35:21;;;;;;;1.77;1.67;;;22.90;99.90;;;;;;5045610;28;20248;-59
2023/08/07 11:38:00;;;;;;;1.67;1.57;;;22.90;99.90;;;;;;5047170;28;20275;-60
2023/08/07 11:40:29;;;;;;;1.57;1.30;;;23.60;99.90;;;;;;5030676;28;20278;-59
2023/08/07 11:43:01;;;;;;;1.50;1.40;;;24.10;99.90;;;;;;5052030;28;20563;-58
2023/08/07 11:45:33;;;;;;;1.63;1.50;;;23.60;99.90;;;;;;5053098;28;20250;-59
2023/08/07 11:48:06;;;;;;;1.47;1.37;;;23.30;99.90;;;;;;5049063;28;20800;-59
2023/08/07 11:50:37;;;;;;;2.03;1.60;;;23.90;99.90;;;;;;5048227;28;20220;-59
2023/08/07 11:53:06;;;;;;;1.40;1.40;;;23.80;99.90;;;;;;5038256;28;20224;-59
2023/08/07 11:55:35;;;;;;;2.20;1.47;;;23.50;99.90;;;;;;5050549;28;20305;-59
2023/08/07 11:58:05;;;;;;;2.63;1.40;;;23.30;99.90;;;;;;5042190;28;20193;-59
2023/08/07 12:00:35;;;;;;;1.30;1.30;;;23.50;99.90;;;;;;5047866;28;20316;-60
2023/08/07 12:03:03;;;;;;;1.73;1.40;;;24.20;99.90;;;;;;5043251;28;20988;-59
2023/08/07 12:05:40;;;;;;;1.40;1.30;;;24.40;99.90;;;;;;5042295;28;20232;-59
2023/08/07 12:08:08;;;;;;;1.47;1.40;;;23.60;99.90;;;;;;5044215;28;20216;-60
2023/08/07 12:10:37;;;;;;;1.60;1.50;;;23.50;99.90;;;;;;5029806;28;20577;-59
2023/08/07 12:13:09;;;;;;;2.23;1.47;;;23.80;99.90;;;;;;5049318;28;20651;-59
2023/08/07 12:15:39;;;;;;;1.37;1.27;;;23.70;99.90;;;;;;5037810;28;20318;-59
2023/08/07 12:18:08;;;;;;;1.17;1.17;;;23.90;99.90;;;;;;5034914;28;20227;-60
2023/08/07 12:20:37;;;;;;;1.47;1.13;;;23.90;99.90;;;;;;5036755;28;20255;-60
2023/08/07 12:23:05;;;;;;;1.60;1.50;;;24.00;99.90;;;;;;5026595;28;20221;-60
2023/08/07 12:25:33;;;;;;;3.97;1.57;;;24.20;99.90;;;;;;5038715;28;20312;-60
2023/08/07 12:28:02;;;;;;;1.30;1.30;;;23.70;99.90;;;;;;5042189;28;20805;-59
2023/08/07 12:30:35;;;;;;;1.70;1.10;;;23.20;99.90;;;;;;5046718;28;20208;-59
2023/08/07 12:33:04;;;;;;;1.27;1.17;;;22.70;99.90;;;;;;5026932;28;20234;-59
2023/08/07 12:35:32;;;;;;;1.20;1.20;;;22.40;99.90;;;;;;5047853;28;20586;-59
2023/08/07 12:38:01;;;;;;;2.40;1.30;;;22.00;99.90;;;;;;5047884;28;20310;-59
2023/08/07 12:40:31;;;;;;;1.10;1.10;;;21.80;99.90;;;;;;5039389;28;20363;-59
2023/08/07 12:43:02;;;;;;;1.10;1.03;;;21.90;99.90;;;;;;5035856;28;20200;-59
2023/08/07 12:45:32;;;;;;;1.43;1.20;;;22.10;99.90;;;;;;5046963;28;20186;-60
2023/08/07 12:48:04;;;;;;;2.40;0.90;;;22.10;99.90;;;;;;5044242;28;20313;-60
2023/08/07 12:50:32;;;;;;;1.10;1.10;;;22.00;99.90;;;;;;5031609;28;20327;-59
2023/08/07 12:53:00;;;;;;;1.77;1.27;;;22.00;99.90;;;;;;5043481;28;20230;-60
2023/08/07 12:55:29;;;;;;;1.17;1.07;;;22.10;99.90;;;;;;5026032;28;20230;-60
2023/08/07 12:57:59;;;;;;;1.40;1.40;;;22.20;99.90;;;;;;5027400;28;20205;-60
2023/08/07 13:00:27;;;;;;;1.70;1.20;;;22.60;99.90;;;;;;5029753;28;20656;-60